OOIWA EBAW-EDDN
Flight info
| Callsign | OOIWA |
|---|---|
| Flight time | N/A |
| Altitude | 7000 |
| Route | SONDI DCT ERIGO DCT KOGES DCT ERTES T194 DODAS DODAS1V |
| Aircraft | C208/L-SDFGR/C |
Departure
| Time | 2026-04-27 19:21 |
|---|---|
| Airport | Antwerp International Airport (Deurne) (EBAW) |
Arrival
| Time | N/A |
|---|---|
| Airport | Nuremberg Airport (EDDN) |
| Time | Latitude | Longitude | Altitude | Speed | Heading |
|---|---|---|---|---|---|
| 2026-04-27 18:50 | 51.19017 | 4.45325 | 39 ft | 0 kts | 290° |
| 2026-04-27 19:15 | 51.19017 | 4.45303 | 39 ft | 6 kts | 247° |
| 2026-04-27 19:15 | 51.18968 | 4.45280 | 39 ft | 3 kts | 141° |
| 2026-04-27 19:15 | 51.18951 | 4.45332 | 39 ft | 7 kts | 104° |
| 2026-04-27 19:16 | 51.18958 | 4.45411 | 39 ft | 8 kts | 65° |
| 2026-04-27 19:16 | 51.18980 | 4.45457 | 39 ft | 8 kts | 51° |
| 2026-04-27 19:16 | 51.19015 | 4.45527 | 38 ft | 9 kts | 52° |
| 2026-04-27 19:16 | 51.19038 | 4.45574 | 38 ft | 0 kts | 52° |
| 2026-04-27 19:20 | 51.19063 | 4.45624 | 38 ft | 17 kts | 50° |
| 2026-04-27 19:20 | 51.19117 | 4.45777 | 36 ft | 17 kts | 97° |
| 2026-04-27 19:20 | 51.19103 | 4.45851 | 36 ft | 6 kts | 110° |
| 2026-04-27 19:20 | 51.18981 | 4.46377 | 59 ft | 88 kts | 109° |
| 2026-04-27 19:21 | 51.18752 | 4.47417 | 403 ft | 104 kts | 105° |
| 2026-04-27 19:21 | 51.18534 | 4.48486 | 953 ft | 102 kts | 104° |
| 2026-04-27 19:21 | 51.18124 | 4.49459 | 1370 ft | 115 kts | 133° |
| 2026-04-27 19:21 | 51.17367 | 4.50018 | 1716 ft | 126 kts | 157° |
| 2026-04-27 19:22 | 51.16529 | 4.50485 | 1934 ft | 134 kts | 155° |
| 2026-04-27 19:22 | 51.15634 | 4.51050 | 1936 ft | 140 kts | 150° |
| 2026-04-27 19:22 | 51.14793 | 4.51834 | 1878 ft | 143 kts | 149° |
| 2026-04-27 19:22 | 51.13917 | 4.52530 | 1920 ft | 139 kts | 149° |
| 2026-04-27 19:23 | 51.13055 | 4.53260 | 1858 ft | 142 kts | 148° |
| 2026-04-27 19:23 | 51.12185 | 4.53930 | 1926 ft | 137 kts | 150° |
| 2026-04-27 19:23 | 51.11311 | 4.54557 | 1921 ft | 138 kts | 154° |
| 2026-04-27 19:23 | 51.10416 | 4.55085 | 1950 ft | 137 kts | 155° |
| 2026-04-27 19:24 | 51.09547 | 4.55722 | 1951 ft | 140 kts | 155° |
| 2026-04-27 19:24 | 51.08620 | 4.56165 | 1927 ft | 142 kts | 159° |
| 2026-04-27 19:24 | 51.07667 | 4.56602 | 1829 ft | 145 kts | 160° |
| 2026-04-27 19:24 | 51.06702 | 4.57062 | 1791 ft | 142 kts | 159° |
| 2026-04-27 19:25 | 51.05768 | 4.57508 | 1786 ft | 139 kts | 159° |
| 2026-04-27 19:25 | 51.04856 | 4.57942 | 1768 ft | 135 kts | 159° |
| 2026-04-27 19:25 | 51.03960 | 4.58362 | 1768 ft | 133 kts | 159° |
| 2026-04-27 19:25 | 51.03045 | 4.58786 | 1764 ft | 141 kts | 160° |
| 2026-04-27 19:26 | 51.02083 | 4.59231 | 1777 ft | 147 kts | 159° |
| 2026-04-27 19:26 | 51.01104 | 4.59691 | 1780 ft | 150 kts | 159° |
| 2026-04-27 19:26 | 51.00095 | 4.60170 | 1779 ft | 153 kts | 160° |
| 2026-04-27 19:26 | 50.99076 | 4.60652 | 1779 ft | 153 kts | 159° |
| 2026-04-27 19:27 | 50.98058 | 4.61138 | 1775 ft | 153 kts | 160° |
| 2026-04-27 19:27 | 50.97039 | 4.61631 | 1772 ft | 153 kts | 159° |
| 2026-04-27 19:27 | 50.96140 | 4.62444 | 1764 ft | 148 kts | 139° |
| 2026-04-27 19:27 | 50.95371 | 4.63522 | 1761 ft | 147 kts | 132° |
| 2026-04-27 19:28 | 50.94632 | 4.64636 | 1763 ft | 147 kts | 133° |
| 2026-04-27 19:28 | 50.93906 | 4.65740 | 1768 ft | 146 kts | 132° |
| 2026-04-27 19:28 | 50.93174 | 4.66856 | 1769 ft | 146 kts | 132° |
| 2026-04-27 19:28 | 50.92437 | 4.67976 | 1770 ft | 147 kts | 132° |
| 2026-04-27 19:29 | 50.91695 | 4.69098 | 1779 ft | 148 kts | 132° |
| 2026-04-27 19:29 | 50.90948 | 4.70222 | 1787 ft | 148 kts | 132° |
| 2026-04-27 19:29 | 50.90201 | 4.71345 | 1774 ft | 148 kts | 133° |
| 2026-04-27 19:29 | 50.89453 | 4.72461 | 1781 ft | 148 kts | 132° |
| 2026-04-27 19:30 | 50.88705 | 4.73573 | 1784 ft | 147 kts | 132° |
| 2026-04-27 19:30 | 50.87960 | 4.74680 | 1784 ft | 147 kts | 132° |
| 2026-04-27 19:30 | 50.87225 | 4.75772 | 1782 ft | 147 kts | 132° |
| 2026-04-27 19:30 | 50.86478 | 4.76881 | 1785 ft | 147 kts | 132° |
| 2026-04-27 19:31 | 50.85729 | 4.77994 | 1782 ft | 148 kts | 132° |
| 2026-04-27 19:31 | 50.84982 | 4.79110 | 1784 ft | 148 kts | 133° |
| 2026-04-27 19:31 | 50.84235 | 4.80227 | 1782 ft | 148 kts | 132° |
| 2026-04-27 19:31 | 50.83487 | 4.81344 | 1780 ft | 148 kts | 132° |
| 2026-04-27 19:32 | 50.82741 | 4.82462 | 1780 ft | 148 kts | 133° |
| 2026-04-27 19:32 | 50.81995 | 4.83578 | 1781 ft | 147 kts | 132° |
| 2026-04-27 19:32 | 50.81261 | 4.84677 | 1779 ft | 147 kts | 132° |
| 2026-04-27 19:32 | 50.80519 | 4.85786 | 1779 ft | 147 kts | 132° |
| 2026-04-27 19:33 | 50.79778 | 4.86894 | 1779 ft | 147 kts | 133° |
| 2026-04-27 19:33 | 50.79379 | 4.87730 | 1768 ft | 142 kts | 110° |
| 2026-04-27 19:33 | 50.79172 | 4.89728 | 1770 ft | 138 kts | 84° |
| 2026-04-27 19:33 | 50.79248 | 4.91238 | 1770 ft | 138 kts | 84° |
| 2026-04-27 19:34 | 50.79331 | 4.92748 | 1772 ft | 138 kts | 83° |
| 2026-04-27 19:34 | 50.79411 | 4.94256 | 1767 ft | 137 kts | 83° |
| 2026-04-27 19:34 | 50.79495 | 4.95740 | 1772 ft | 137 kts | 84° |
| 2026-04-27 19:34 | 50.79522 | 4.97183 | 1213 ft | 136 kts | 93° |
| 2026-04-27 19:35 | 50.79329 | 4.98686 | 995 ft | 107 kts | 86° |
| 2026-04-27 19:35 | 50.79457 | 4.99591 | 1015 ft | 74 kts | 74° |
| 2026-04-27 19:35 | 50.79562 | 5.00469 | 577 ft | 95 kts | 79° |
| 2026-04-27 19:35 | 50.79760 | 5.01410 | 405 ft | 85 kts | 65° |
| 2026-04-27 19:36 | 50.80084 | 5.02431 | 605 ft | 114 kts | 68° |
| 2026-04-27 19:36 | 50.80375 | 5.03562 | 1161 ft | 107 kts | 68° |
| 2026-04-27 19:36 | 50.80512 | 5.04769 | 1563 ft | 119 kts | 85° |
| 2026-04-27 19:36 | 50.80509 | 5.06156 | 1764 ft | 136 kts | 85° |
| 2026-04-27 19:37 | 50.80591 | 5.07745 | 1771 ft | 152 kts | 83° |
| 2026-04-27 19:37 | 50.80691 | 5.09450 | 1774 ft | 159 kts | 83° |
| 2026-04-27 19:37 | 50.80792 | 5.11206 | 1772 ft | 162 kts | 83° |
| 2026-04-27 19:37 | 50.80897 | 5.12992 | 1778 ft | 163 kts | 83° |
| 2026-04-27 19:38 | 50.81001 | 5.14768 | 1776 ft | 163 kts | 83° |
| 2026-04-27 19:38 | 50.81103 | 5.16528 | 1781 ft | 163 kts | 83° |
| 2026-04-27 19:38 | 50.81208 | 5.18315 | 1779 ft | 163 kts | 83° |
| 2026-04-27 19:38 | 50.81309 | 5.20094 | 1780 ft | 162 kts | 83° |
| 2026-04-27 19:39 | 50.81408 | 5.21873 | 1779 ft | 163 kts | 83° |
| 2026-04-27 19:39 | 50.81516 | 5.23654 | 1777 ft | 163 kts | 83° |
| 2026-04-27 19:39 | 50.81618 | 5.25433 | 1777 ft | 162 kts | 83° |
| 2026-04-27 19:39 | 50.81719 | 5.27215 | 1778 ft | 163 kts | 83° |
| 2026-04-27 19:40 | 50.81816 | 5.28996 | 1777 ft | 163 kts | 84° |
| 2026-04-27 19:40 | 50.81910 | 5.30754 | 1776 ft | 162 kts | 83° |
| 2026-04-27 19:40 | 50.82005 | 5.32534 | 1775 ft | 163 kts | 83° |
| 2026-04-27 19:40 | 50.82099 | 5.34314 | 1777 ft | 163 kts | 83° |
| 2026-04-27 19:41 | 50.82196 | 5.36098 | 1775 ft | 162 kts | 83° |
| 2026-04-27 19:41 | 50.82293 | 5.37873 | 1777 ft | 162 kts | 83° |
| 2026-04-27 19:41 | 50.82389 | 5.39656 | 1777 ft | 163 kts | 84° |
| 2026-04-27 19:41 | 50.82477 | 5.41437 | 1780 ft | 163 kts | 84° |
| 2026-04-27 19:42 | 50.82567 | 5.43225 | 1775 ft | 163 kts | 84° |
| 2026-04-27 19:42 | 50.82664 | 5.45008 | 1771 ft | 162 kts | 84° |
| 2026-04-27 19:42 | 50.82751 | 5.46767 | 1770 ft | 163 kts | 84° |
| 2026-04-27 19:42 | 50.82843 | 5.48556 | 1773 ft | 164 kts | 84° |
| 2026-04-27 19:43 | 50.82932 | 5.50352 | 1776 ft | 164 kts | 85° |
| 2026-04-27 19:43 | 50.82871 | 5.52155 | 1783 ft | 165 kts | 96° |
| 2026-04-27 19:43 | 50.82522 | 5.53898 | 1777 ft | 168 kts | 113° |
| 2026-04-27 19:43 | 50.81945 | 5.55513 | 1781 ft | 169 kts | 118° |
| 2026-04-27 19:44 | 50.81328 | 5.57098 | 1780 ft | 170 kts | 118° |
| 2026-04-27 19:44 | 50.80717 | 5.58679 | 1771 ft | 167 kts | 118° |
| 2026-04-27 19:44 | 50.80132 | 5.60209 | 1771 ft | 164 kts | 118° |
| 2026-04-27 19:44 | 50.79548 | 5.61740 | 1770 ft | 162 kts | 118° |
| 2026-04-27 19:45 | 50.78965 | 5.63264 | 1776 ft | 162 kts | 117° |
| 2026-04-27 19:45 | 50.78385 | 5.64779 | 1779 ft | 161 kts | 117° |
| 2026-04-27 19:45 | 50.77808 | 5.66286 | 1776 ft | 160 kts | 118° |
| 2026-04-27 19:45 | 50.77232 | 5.67790 | 1780 ft | 160 kts | 118° |
| 2026-04-27 19:46 | 50.76654 | 5.69299 | 1772 ft | 161 kts | 118° |
| 2026-04-27 19:46 | 50.76076 | 5.70806 | 1776 ft | 160 kts | 118° |
| 2026-04-27 19:46 | 50.75497 | 5.72313 | 1774 ft | 161 kts | 118° |
| 2026-04-27 19:46 | 50.74916 | 5.73826 | 1775 ft | 161 kts | 118° |
| 2026-04-27 19:47 | 50.74348 | 5.75305 | 1767 ft | 159 kts | 118° |
| 2026-04-27 19:47 | 50.73776 | 5.76791 | 1772 ft | 158 kts | 117° |
| 2026-04-27 19:47 | 50.73205 | 5.78273 | 1777 ft | 158 kts | 118° |
| 2026-04-27 19:47 | 50.72633 | 5.79762 | 1778 ft | 160 kts | 118° |
| 2026-04-27 19:48 | 50.72054 | 5.81269 | 1774 ft | 161 kts | 118° |
| 2026-04-27 19:48 | 50.71471 | 5.82779 | 1774 ft | 161 kts | 118° |
| 2026-04-27 19:48 | 50.70894 | 5.84269 | 1773 ft | 156 kts | 119° |
| 2026-04-27 19:48 | 50.70334 | 5.85718 | 1769 ft | 153 kts | 118° |
| 2026-04-27 19:49 | 50.69790 | 5.87128 | 1771 ft | 152 kts | 118° |
| 2026-04-27 19:49 | 50.69243 | 5.88551 | 1768 ft | 151 kts | 118° |
| 2026-04-27 19:49 | 50.68694 | 5.89964 | 1769 ft | 151 kts | 118° |
| 2026-04-27 19:49 | 50.68149 | 5.91376 | 1770 ft | 150 kts | 119° |
| 2026-04-27 19:50 | 50.67603 | 5.92787 | 1768 ft | 152 kts | 118° |
| 2026-04-27 19:50 | 50.67055 | 5.94201 | 1799 ft | 150 kts | 117° |
| 2026-04-27 19:50 | 50.66524 | 5.95571 | 1923 ft | 144 kts | 117° |
| 2026-04-27 19:50 | 50.66003 | 5.96918 | 1966 ft | 146 kts | 117° |
| 2026-04-27 19:51 | 50.65478 | 5.98277 | 1967 ft | 148 kts | 117° |
| 2026-04-27 19:51 | 50.64938 | 5.99664 | 1965 ft | 149 kts | 118° |
| 2026-04-27 19:51 | 50.64397 | 6.01058 | 1965 ft | 149 kts | 118° |
| 2026-04-27 19:51 | 50.63857 | 6.02448 | 1968 ft | 148 kts | 118° |
| 2026-04-27 19:52 | 50.63317 | 6.03837 | 1963 ft | 148 kts | 118° |
| 2026-04-27 19:52 | 50.62963 | 6.04755 | 1960 ft | 148 kts | 118° |
| 2026-04-27 19:52 | 50.62242 | 6.06600 | 1962 ft | 147 kts | 120° |
| 2026-04-27 19:52 | 50.61702 | 6.07996 | 1967 ft | 152 kts | 119° |
| 2026-04-27 19:53 | 50.60615 | 6.10783 | 2171 ft | 146 kts | 117° |
| 2026-04-27 19:53 | 50.60109 | 6.12097 | 2332 ft | 139 kts | 119° |
| 2026-04-27 19:53 | 50.59597 | 6.13396 | 2438 ft | 145 kts | 122° |
| 2026-04-27 19:54 | 50.59069 | 6.14765 | 2503 ft | 150 kts | 119° |
| 2026-04-27 19:54 | 50.58497 | 6.16202 | 2462 ft | 156 kts | 119° |
| 2026-04-27 19:54 | 50.57934 | 6.17646 | 2461 ft | 153 kts | 118° |
| 2026-04-27 19:54 | 50.57375 | 6.19061 | 2494 ft | 150 kts | 118° |
| 2026-04-27 19:55 | 50.56954 | 6.20458 | 2736 ft | 133 kts | 102° |
| 2026-04-27 19:55 | 50.56788 | 6.21851 | 2956 ft | 129 kts | 98° |
| 2026-04-27 19:55 | 50.56614 | 6.23301 | 2956 ft | 139 kts | 99° |
| 2026-04-27 19:55 | 50.56435 | 6.24792 | 2971 ft | 140 kts | 99° |
| 2026-04-27 19:56 | 50.56254 | 6.26327 | 2964 ft | 144 kts | 99° |
| 2026-04-27 19:56 | 50.56067 | 6.27889 | 2966 ft | 147 kts | 99° |
| 2026-04-27 19:56 | 50.55879 | 6.29465 | 2966 ft | 147 kts | 98° |
| 2026-04-27 19:56 | 50.55691 | 6.31051 | 2960 ft | 149 kts | 99° |
| 2026-04-27 19:57 | 50.55503 | 6.32634 | 2973 ft | 148 kts | 99° |
| 2026-04-27 19:57 | 50.55312 | 6.34220 | 2965 ft | 147 kts | 99° |
| 2026-04-27 19:57 | 50.55120 | 6.35816 | 2955 ft | 150 kts | 99° |
| 2026-04-27 19:57 | 50.54932 | 6.37390 | 2973 ft | 145 kts | 99° |
| 2026-04-27 19:58 | 50.54809 | 6.38430 | 2964 ft | 147 kts | 99° |
| 2026-04-27 19:58 | 50.54559 | 6.40502 | 2972 ft | 147 kts | 99° |
| 2026-04-27 19:58 | 50.54368 | 6.42090 | 2972 ft | 149 kts | 99° |
| 2026-04-27 19:58 | 50.54176 | 6.43680 | 2969 ft | 147 kts | 99° |
| 2026-04-27 19:59 | 50.53986 | 6.45262 | 2969 ft | 147 kts | 99° |
| 2026-04-27 19:59 | 50.53861 | 6.46299 | 3069 ft | 143 kts | 99° |
| 2026-04-27 19:59 | 50.53681 | 6.47801 | 3318 ft | 139 kts | 100° |
| 2026-04-27 19:59 | 50.53504 | 6.49282 | 3564 ft | 137 kts | 100° |
| 2026-04-27 20:00 | 50.53327 | 6.50745 | 3819 ft | 136 kts | 101° |
| 2026-04-27 20:00 | 50.53153 | 6.52202 | 4068 ft | 136 kts | 101° |
| 2026-04-27 20:00 | 50.52973 | 6.53677 | 4322 ft | 137 kts | 101° |
| 2026-04-27 20:00 | 50.52794 | 6.55145 | 4580 ft | 138 kts | 101° |
| 2026-04-27 20:01 | 50.52614 | 6.56634 | 4842 ft | 139 kts | 102° |
| 2026-04-27 20:01 | 50.52432 | 6.58127 | 5091 ft | 139 kts | 101° |
| 2026-04-27 20:01 | 50.52251 | 6.59606 | 5338 ft | 140 kts | 101° |
| 2026-04-27 20:01 | 50.52068 | 6.61111 | 5590 ft | 141 kts | 101° |
| 2026-04-27 20:02 | 50.51883 | 6.62625 | 5844 ft | 142 kts | 101° |
| 2026-04-27 20:02 | 50.51697 | 6.64150 | 6100 ft | 143 kts | 101° |
| 2026-04-27 20:02 | 50.51509 | 6.65690 | 6358 ft | 144 kts | 101° |
| 2026-04-27 20:02 | 50.51318 | 6.67240 | 6614 ft | 145 kts | 101° |
| 2026-04-27 20:03 | 50.51127 | 6.68799 | 6857 ft | 146 kts | 102° |
| 2026-04-27 20:03 | 50.50931 | 6.70398 | 6963 ft | 156 kts | 101° |
| 2026-04-27 20:03 | 50.50719 | 6.72101 | 6960 ft | 165 kts | 102° |
| 2026-04-27 20:03 | 50.50497 | 6.73900 | 6964 ft | 170 kts | 102° |
| 2026-04-27 20:04 | 50.50270 | 6.75732 | 6964 ft | 172 kts | 102° |
| 2026-04-27 20:04 | 50.50041 | 6.77587 | 6964 ft | 173 kts | 101° |
| 2026-04-27 20:04 | 50.49810 | 6.79452 | 6964 ft | 174 kts | 101° |
| 2026-04-27 20:04 | 50.49579 | 6.81322 | 6964 ft | 175 kts | 102° |
| 2026-04-27 20:05 | 50.49347 | 6.83193 | 6963 ft | 175 kts | 102° |
| 2026-04-27 20:05 | 50.49114 | 6.85065 | 6961 ft | 175 kts | 101° |
| 2026-04-27 20:05 | 50.48881 | 6.86942 | 6958 ft | 175 kts | 102° |
| 2026-04-27 20:05 | 50.48648 | 6.88815 | 6958 ft | 175 kts | 102° |
| 2026-04-27 20:06 | 50.48418 | 6.90663 | 6957 ft | 175 kts | 102° |
| 2026-04-27 20:06 | 50.48184 | 6.92534 | 6954 ft | 175 kts | 102° |
| 2026-04-27 20:06 | 50.47950 | 6.94405 | 6959 ft | 175 kts | 102° |
| 2026-04-27 20:06 | 50.47715 | 6.96280 | 6958 ft | 175 kts | 102° |
| 2026-04-27 20:07 | 50.47481 | 6.98147 | 6952 ft | 174 kts | 102° |
| 2026-04-27 20:07 | 50.47248 | 7.00006 | 6953 ft | 174 kts | 102° |
| 2026-04-27 20:07 | 50.47015 | 7.01863 | 6957 ft | 173 kts | 102° |
| 2026-04-27 20:07 | 50.46781 | 7.03719 | 6954 ft | 173 kts | 102° |
| 2026-04-27 20:08 | 50.46547 | 7.05574 | 6944 ft | 173 kts | 102° |
| 2026-04-27 20:08 | 50.46317 | 7.07400 | 6945 ft | 173 kts | 102° |
| 2026-04-27 20:08 | 50.46083 | 7.09251 | 6945 ft | 173 kts | 102° |
| 2026-04-27 20:08 | 50.45848 | 7.11106 | 6950 ft | 173 kts | 102° |
| 2026-04-27 20:09 | 50.45613 | 7.12958 | 6946 ft | 173 kts | 102° |
| 2026-04-27 20:09 | 50.45378 | 7.14812 | 6943 ft | 173 kts | 102° |
| 2026-04-27 20:09 | 50.45143 | 7.16662 | 6951 ft | 173 kts | 102° |
| 2026-04-27 20:09 | 50.44907 | 7.18515 | 6943 ft | 173 kts | 102° |
| 2026-04-27 20:10 | 50.44672 | 7.20366 | 6945 ft | 173 kts | 102° |
| 2026-04-27 20:10 | 50.44439 | 7.22191 | 6945 ft | 173 kts | 102° |
| 2026-04-27 20:10 | 50.44202 | 7.24041 | 6942 ft | 173 kts | 102° |
| 2026-04-27 20:10 | 50.43966 | 7.25890 | 6943 ft | 173 kts | 102° |
| 2026-04-27 20:11 | 50.43729 | 7.27740 | 6946 ft | 173 kts | 102° |
| 2026-04-27 20:11 | 50.43216 | 7.29398 | 6957 ft | 171 kts | 138° |
| 2026-04-27 20:11 | 50.42141 | 7.30078 | 6954 ft | 169 kts | 177° |
| 2026-04-27 20:11 | 50.40975 | 7.30214 | 6950 ft | 167 kts | 175° |
| 2026-04-27 20:12 | 50.39818 | 7.30493 | 6952 ft | 166 kts | 171° |
| 2026-04-27 20:12 | 50.38717 | 7.30840 | 6944 ft | 165 kts | 169° |
| 2026-04-27 20:12 | 50.37595 | 7.31209 | 6942 ft | 162 kts | 169° |
| 2026-04-27 20:12 | 50.36512 | 7.31563 | 6944 ft | 157 kts | 169° |
| 2026-04-27 20:13 | 50.35458 | 7.31908 | 6939 ft | 153 kts | 169° |
| 2026-04-27 20:13 | 50.34417 | 7.32105 | 6911 ft | 152 kts | 193° |
| 2026-04-27 20:13 | 50.33563 | 7.31070 | 6483 ft | 172 kts | 243° |
| 2026-04-27 20:13 | 50.33101 | 7.29512 | 6265 ft | 153 kts | 258° |
| 2026-04-27 20:14 | 50.33262 | 7.27869 | 6067 ft | 155 kts | 301° |
| 2026-04-27 20:14 | 50.34116 | 7.26841 | 5539 ft | 157 kts | 347° |
| 2026-04-27 20:14 | 50.35115 | 7.26584 | 4338 ft | 143 kts | 17° |
| 2026-04-27 20:14 | 50.35743 | 7.27522 | 2906 ft | 137 kts | 63° |
| 2026-04-27 20:15 | 50.36168 | 7.28963 | 1606 ft | 145 kts | 74° |
| 2026-04-27 20:15 | 50.36429 | 7.30512 | 1272 ft | 148 kts | 70° |
| 2026-04-27 20:15 | 50.36662 | 7.31955 | 1121 ft | 130 kts | 70° |
| 2026-04-27 20:15 | 50.37425 | 7.32203 | 1216 ft | 137 kts | 329° |
| 2026-04-27 20:16 | 50.37974 | 7.31093 | 1310 ft | 127 kts | 294° |
| 2026-04-27 20:16 | 50.37944 | 7.29816 | 1462 ft | 116 kts | 250° |
| 2026-04-27 20:16 | 50.37646 | 7.28738 | 1597 ft | 103 kts | 240° |
| 2026-04-27 20:16 | 50.37061 | 7.28227 | 1578 ft | 91 kts | 181° |
| 2026-04-27 20:17 | 50.36498 | 7.28423 | 1512 ft | 76 kts | 138° |
| 2026-04-27 20:17 | 50.36253 | 7.29198 | 1016 ft | 88 kts | 91° |
| 2026-04-27 20:17 | 50.36357 | 7.30102 | 706 ft | 81 kts | 74° |
| 2026-04-27 20:17 | 50.36489 | 7.30884 | 595 ft | 63 kts | 70° |
| 2026-04-27 20:18 | 50.36584 | 7.31446 | 581 ft | 46 kts | 75° |
| 2026-04-27 20:18 | 50.36648 | 7.31821 | 576 ft | 31 kts | 75° |
| 2026-04-27 20:18 | 50.36701 | 7.32125 | 570 ft | 34 kts | 75° |
| 2026-04-27 20:18 | 50.36774 | 7.32559 | 560 ft | 33 kts | 75° |
| 2026-04-27 20:19 | 50.36883 | 7.32529 | 558 ft | 21 kts | 272° |
| 2026-04-27 20:19 | 50.36837 | 7.32252 | 563 ft | 41 kts | 254° |
| 2026-04-27 20:19 | 50.36861 | 7.32028 | 568 ft | 1 kts | 357° |